Terminal Aerodrome Forecast
Issued by NWS

Home | Current Version | Previous Version | Text Only | Print | Product List | Glossary On
Versions: 1 2 3 4 5 6 7 8 9 10 11 12 13 14 15 16 17 18 19 20 21 22 23 24 25 26
000
FTAK31 PAFA 130540
TAFAFA
TAF
PAFA 130540Z 1306/1412 26007KT P6SM FEW070 SCT100
     FM130900 VRB03KT P6SM VCSH SCT040 BKN080
     FM131200 23005KT P6SM -SHRA SCT035 BKN050 OVC070
     FM132200 23012KT P6SM VCSH BKN060 OVC080=

USA.gov is the U.S. government's official web portal to all federal, state and local government web resources and services.